sensor_id;sensor_type;location;lat;lon;timestamp;pressure;altitude;pressure_sealevel;temperature;humidity
2711;BME280;20721;47.402;8.550;2022-10-31T00:00:03;96627;;;14.28;63.77
2711;BME280;20721;47.402;8.550;2022-10-31T00:01:02;96630;;;14.26;63.71
2711;BME280;20721;47.402;8.550;2022-10-31T00:02:02;96629;;;14.25;63.72
2711;BME280;20721;47.402;8.550;2022-10-31T00:04:02;96632;;;14.26;63.71
2711;BME280;20721;47.402;8.550;2022-10-31T00:05:02;96631;;;14.27;63.58
2711;BME280;20721;47.402;8.550;2022-10-31T00:06:02;96631;;;14.29;63.71
2711;BME280;20721;47.402;8.550;2022-10-31T00:07:02;96628;;;14.31;63.75
2711;BME280;20721;47.402;8.550;2022-10-31T00:08:02;96626;;;14.32;63.66
2711;BME280;20721;47.402;8.550;2022-10-31T00:12:02;96628;;;14.30;63.40
2711;BME280;20721;47.402;8.550;2022-10-31T00:13:02;96628;;;14.28;63.54
2711;BME280;20721;47.402;8.550;2022-10-31T00:14:02;96628;;;14.25;63.54
2711;BME280;20721;47.402;8.550;2022-10-31T00:15:02;96627;;;14.23;63.81
2711;BME280;20721;47.402;8.550;2022-10-31T00:16:03;96626;;;14.21;63.93
2711;BME280;20721;47.402;8.550;2022-10-31T00:17:02;96624;;;14.18;64.10
2711;BME280;20721;47.402;8.550;2022-10-31T00:19:02;96623;;;14.19;64.04
2711;BME280;20721;47.402;8.550;2022-10-31T00:23:02;96619;;;14.18;63.86
2711;BME280;20721;47.402;8.550;2022-10-31T00:24:02;96620;;;14.16;63.80
2711;BME280;20721;47.402;8.550;2022-10-31T00:26:02;96619;;;14.17;63.61
2711;BME280;20721;47.402;8.550;2022-10-31T00:27:02;96618;;;14.18;63.60
2711;BME280;20721;47.402;8.550;2022-10-31T00:29:02;96614;;;14.19;63.62
2711;BME280;20721;47.402;8.550;2022-10-31T00:30:02;96614;;;14.20;63.67
2711;BME280;20721;47.402;8.550;2022-10-31T00:31:02;96617;;;14.21;63.78
2711;BME280;20721;47.402;8.550;2022-10-31T00:32:02;96619;;;14.22;63.76
2711;BME280;20721;47.402;8.550;2022-10-31T00:34:02;96620;;;14.21;63.80
2711;BME280;20721;47.402;8.550;2022-10-31T00:37:02;96619;;;14.20;63.85
2711;BME280;20721;47.402;8.550;2022-10-31T00:39:02;96621;;;14.19;63.60
2711;BME280;20721;47.402;8.550;2022-10-31T00:40:02;96622;;;14.17;63.49
2711;BME280;20721;47.402;8.550;2022-10-31T00:41:02;96617;;;14.13;63.49
2711;BME280;20721;47.402;8.550;2022-10-31T00:42:02;96621;;;14.11;63.54
2711;BME280;20721;47.402;8.550;2022-10-31T00:43:03;96619;;;14.09;63.51
2711;BME280;20721;47.402;8.550;2022-10-31T00:44:02;96616;;;14.07;63.49
2711;BME280;20721;47.402;8.550;2022-10-31T00:46:02;96613;;;14.08;63.63
2711;BME280;20721;47.402;8.550;2022-10-31T00:47:02;96612;;;14.09;63.65
2711;BME280;20721;47.402;8.550;2022-10-31T00:48:02;96605;;;14.11;63.62
2711;BME280;20721;47.402;8.550;2022-10-31T00:49:02;96608;;;14.10;63.66
2711;BME280;20721;47.402;8.550;2022-10-31T00:50:02;96609;;;14.08;63.88
2711;BME280;20721;47.402;8.550;2022-10-31T00:52:02;96607;;;14.10;64.08
2711;BME280;20721;47.402;8.550;2022-10-31T00:53:04;96608;;;14.11;64.25
2711;BME280;20721;47.402;8.550;2022-10-31T00:54:02;96611;;;14.13;64.27
2711;BME280;20721;47.402;8.550;2022-10-31T00:55:02;96613;;;14.15;64.41
2711;BME280;20721;47.402;8.550;2022-10-31T00:56:02;96618;;;14.18;64.35
2711;BME280;20721;47.402;8.550;2022-10-31T00:57:02;96616;;;14.20;64.34
2711;BME280;20721;47.402;8.550;2022-10-31T00:58:03;96620;;;14.22;64.28
2711;BME280;20721;47.402;8.550;2022-10-31T00:59:02;96618;;;14.21;64.14
2711;BME280;20721;47.402;8.550;2022-10-31T01:01:02;96619;;;14.19;64.12
2711;BME280;20721;47.402;8.550;2022-10-31T01:02:02;96617;;;14.17;64.05
2711;BME280;20721;47.402;8.550;2022-10-31T01:03:02;96615;;;14.15;63.90
2711;BME280;20721;47.402;8.550;2022-10-31T01:04:02;96614;;;14.13;63.60
2711;BME280;20721;47.402;8.550;2022-10-31T01:05:02;96612;;;14.11;63.43
2711;BME280;20721;47.402;8.550;2022-10-31T01:06:04;96612;;;14.07;63.41
2711;BME280;20721;47.402;8.550;2022-10-31T01:07:02;96610;;;14.05;63.42
2711;BME280;20721;47.402;8.550;2022-10-31T01:08:02;96612;;;14.04;63.45
2711;BME280;20721;47.402;8.550;2022-10-31T01:09:02;96613;;;14.03;63.41
2711;BME280;20721;47.402;8.550;2022-10-31T01:10:02;96612;;;14.01;63.30
2711;BME280;20721;47.402;8.550;2022-10-31T01:14:02;96614;;;13.99;63.18
2711;BME280;20721;47.402;8.550;2022-10-31T01:15:02;96618;;;13.97;63.12
2711;BME280;20721;47.402;8.550;2022-10-31T01:16:02;96617;;;13.96;63.23
2711;BME280;20721;47.402;8.550;2022-10-31T01:17:02;96613;;;13.93;63.33
2711;BME280;20721;47.402;8.550;2022-10-31T01:18:02;96614;;;13.92;63.28
2711;BME280;20721;47.402;8.550;2022-10-31T01:19:02;96613;;;13.90;63.21
2711;BME280;20721;47.402;8.550;2022-10-31T01:20:03;96616;;;13.87;63.28
2711;BME280;20721;47.402;8.550;2022-10-31T01:21:03;96613;;;13.82;63.43
2711;BME280;20721;47.402;8.550;2022-10-31T01:22:02;96615;;;13.79;63.52
2711;BME280;20721;47.402;8.550;2022-10-31T01:23:02;96611;;;13.78;63.54
2711;BME280;20721;47.402;8.550;2022-10-31T01:24:02;96612;;;13.76;63.35
2711;BME280;20721;47.402;8.550;2022-10-31T01:25:02;96610;;;13.75;63.24
2711;BME280;20721;47.402;8.550;2022-10-31T01:26:03;96610;;;13.72;63.23
2711;BME280;20721;47.402;8.550;2022-10-31T01:27:02;96613;;;13.70;63.17
2711;BME280;20721;47.402;8.550;2022-10-31T01:28:02;96610;;;13.69;63.10
2711;BME280;20721;47.402;8.550;2022-10-31T01:29:04;96611;;;13.68;63.06
2711;BME280;20721;47.402;8.550;2022-10-31T01:30:04;96613;;;13.66;63.09
2711;BME280;20721;47.402;8.550;2022-10-31T01:31:03;96610;;;13.64;63.07
2711;BME280;20721;47.402;8.550;2022-10-31T01:32:02;96612;;;13.62;63.04
2711;BME280;20721;47.402;8.550;2022-10-31T01:33:02;96607;;;13.60;63.10
2711;BME280;20721;47.402;8.550;2022-10-31T01:34:02;96610;;;13.59;63.09
2711;BME280;20721;47.402;8.550;2022-10-31T01:37:02;96605;;;13.58;63.04
2711;BME280;20721;47.402;8.550;2022-10-31T01:38:02;96608;;;13.57;63.10
2711;BME280;20721;47.402;8.550;2022-10-31T01:39:03;96605;;;13.56;63.14
2711;BME280;20721;47.402;8.550;2022-10-31T01:40:02;96606;;;13.57;63.11
2711;BME280;20721;47.402;8.550;2022-10-31T01:41:02;96607;;;13.55;63.03
2711;BME280;20721;47.402;8.550;2022-10-31T01:42:02;96607;;;13.52;63.08
2711;BME280;20721;47.402;8.550;2022-10-31T01:43:02;96608;;;13.50;63.12
2711;BME280;20721;47.402;8.550;2022-10-31T01:44:03;96608;;;13.48;63.16
2711;BME280;20721;47.402;8.550;2022-10-31T01:45:02;96607;;;13.46;63.18
2711;BME280;20721;47.402;8.550;2022-10-31T01:46:02;96608;;;13.44;63.23
2711;BME280;20721;47.402;8.550;2022-10-31T01:47:06;96608;;;13.40;63.30
2711;BME280;20721;47.402;8.550;2022-10-31T01:48:02;96605;;;13.38;63.40
2711;BME280;20721;47.402;8.550;2022-10-31T01:50:03;96607;;;13.35;63.47
2711;BME280;20721;47.402;8.550;2022-10-31T01:51:04;96607;;;13.33;63.74
2711;BME280;20721;47.402;8.550;2022-10-31T01:55:05;96602;;;13.32;63.71
2711;BME280;20721;47.402;8.550;2022-10-31T01:56:02;96599;;;13.34;63.70
2711;BME280;20721;47.402;8.550;2022-10-31T01:57:02;96604;;;13.35;63.65
2711;BME280;20721;47.402;8.550;2022-10-31T01:58:06;96601;;;13.36;63.55
2711;BME280;20721;47.402;8.550;2022-10-31T02:03:03;96600;;;13.38;63.65
2711;BME280;20721;47.402;8.550;2022-10-31T02:04:02;96597;;;13.39;63.66
2711;BME280;20721;47.402;8.550;2022-10-31T02:05:04;96595;;;13.40;63.59
2711;BME280;20721;47.402;8.550;2022-10-31T02:06:02;96596;;;13.43;63.52
2711;BME280;20721;47.402;8.550;2022-10-31T02:07:06;96595;;;13.44;63.45
2711;BME280;20721;47.402;8.550;2022-10-31T02:11:02;96594;;;13.45;63.19
2711;BME280;20721;47.402;8.550;2022-10-31T02:12:02;96595;;;13.46;63.11
2711;BME280;20721;47.402;8.550;2022-10-31T02:13:03;96594;;;13.49;62.92
2711;BME280;20721;47.402;8.550;2022-10-31T02:14:02;96596;;;13.51;62.85
2711;BME280;20721;47.402;8.550;2022-10-31T02:15:03;96593;;;13.53;62.74
2711;BME280;20721;47.402;8.550;2022-10-31T02:16:02;96591;;;13.55;62.65
2711;BME280;20721;47.402;8.550;2022-10-31T02:17:02;96594;;;13.56;62.52
2711;BME280;20721;47.402;8.550;2022-10-31T02:19:02;96586;;;13.54;62.45
2711;BME280;20721;47.402;8.550;2022-10-31T02:20:12;96587;;;13.53;62.48
2711;BME280;20721;47.402;8.550;2022-10-31T02:23:20;96582;;;13.55;62.28
2711;BME280;20721;47.402;8.550;2022-10-31T02:27:11;96582;;;13.47;62.42
2711;BME280;20721;47.402;8.550;2022-10-31T02:29:05;96579;;;13.42;62.48
2711;BME280;20721;47.402;8.550;2022-10-31T02:32:08;96578;;;13.44;62.32
2711;BME280;20721;47.402;8.550;2022-10-31T02:37:07;96582;;;13.39;62.55
2711;BME280;20721;47.402;8.550;2022-10-31T02:38:09;96581;;;13.37;62.68
2711;BME280;20721;47.402;8.550;2022-10-31T02:40:09;96582;;;13.31;62.71
2711;BME280;20721;47.402;8.550;2022-10-31T02:42:04;96583;;;13.28;62.69
2711;BME280;20721;47.402;8.550;2022-10-31T02:43:05;96583;;;13.26;62.74
2711;BME280;20721;47.402;8.550;2022-10-31T02:46:04;96579;;;13.18;62.95
2711;BME280;20721;47.402;8.550;2022-10-31T02:48:04;96579;;;13.16;63.04
2711;BME280;20721;47.402;8.550;2022-10-31T02:49:04;96584;;;13.18;63.19
2711;BME280;20721;47.402;8.550;2022-10-31T02:51:02;96584;;;13.19;63.42
2711;BME280;20721;47.402;8.550;2022-10-31T02:53:02;96584;;;13.18;63.60
2711;BME280;20721;47.402;8.550;2022-10-31T02:56:18;96580;;;13.20;63.52
2711;BME280;20721;47.402;8.550;2022-10-31T02:57:04;96581;;;13.22;63.43
2711;BME280;20721;47.402;8.550;2022-10-31T02:58:05;96581;;;13.21;63.39
2711;BME280;20721;47.402;8.550;2022-10-31T02:59:02;96581;;;13.20;63.29
2711;BME280;20721;47.402;8.550;2022-10-31T03:00:03;96574;;;13.21;63.37
2711;BME280;20721;47.402;8.550;2022-10-31T03:01:07;96578;;;13.25;63.20
2711;BME280;20721;47.402;8.550;2022-10-31T03:04:06;96574;;;13.30;62.99
2711;BME280;20721;47.402;8.550;2022-10-31T03:06:07;96572;;;13.30;62.89
2711;BME280;20721;47.402;8.550;2022-10-31T03:07:06;96573;;;13.29;62.96
2711;BME280;20721;47.402;8.550;2022-10-31T03:09:11;96573;;;13.25;62.87
2711;BME280;20721;47.402;8.550;2022-10-31T03:11:03;96574;;;13.20;62.99
2711;BME280;20721;47.402;8.550;2022-10-31T03:17:03;96569;;;13.09;63.01
2711;BME280;20721;47.402;8.550;2022-10-31T03:18:06;96568;;;13.06;62.99
2711;BME280;20721;47.402;8.550;2022-10-31T03:19:05;96566;;;13.02;63.05
2711;BME280;20721;47.402;8.550;2022-10-31T03:20:02;96566;;;13.00;63.07
2711;BME280;20721;47.402;8.550;2022-10-31T03:21:08;96565;;;12.98;63.10
2711;BME280;20721;47.402;8.550;2022-10-31T03:22:12;96564;;;12.96;63.11
2711;BME280;20721;47.402;8.550;2022-10-31T03:23:02;96563;;;12.94;63.08
2711;BME280;20721;47.402;8.550;2022-10-31T03:24:02;96566;;;12.92;63.02
2711;BME280;20721;47.402;8.550;2022-10-31T03:25:02;96566;;;12.90;63.01
2711;BME280;20721;47.402;8.550;2022-10-31T03:26:03;96571;;;12.88;63.05
2711;BME280;20721;47.402;8.550;2022-10-31T03:27:02;96570;;;12.85;62.97
2711;BME280;20721;47.402;8.550;2022-10-31T03:28:03;96570;;;12.83;63.00
2711;BME280;20721;47.402;8.550;2022-10-31T03:29:03;96573;;;12.79;63.11
2711;BME280;20721;47.402;8.550;2022-10-31T03:30:03;96572;;;12.77;63.21
2711;BME280;20721;47.402;8.550;2022-10-31T03:31:07;96570;;;12.74;63.27
2711;BME280;20721;47.402;8.550;2022-10-31T03:32:11;96572;;;12.73;63.38
2711;BME280;20721;47.402;8.550;2022-10-31T03:33:03;96571;;;12.72;63.48
2711;BME280;20721;47.402;8.550;2022-10-31T03:34:02;96569;;;12.71;63.50
2711;BME280;20721;47.402;8.550;2022-10-31T03:35:02;96572;;;12.70;63.56
2711;BME280;20721;47.402;8.550;2022-10-31T03:36:02;96567;;;12.69;63.60
2711;BME280;20721;47.402;8.550;2022-10-31T03:38:07;96569;;;12.70;63.55
2711;BME280;20721;47.402;8.550;2022-10-31T03:40:02;96568;;;12.68;63.56
2711;BME280;20721;47.402;8.550;2022-10-31T03:41:03;96566;;;12.67;63.48
2711;BME280;20721;47.402;8.550;2022-10-31T03:44:03;96563;;;12.64;63.83
2711;BME280;20721;47.402;8.550;2022-10-31T03:45:04;96564;;;12.63;63.81
2711;BME280;20721;47.402;8.550;2022-10-31T03:46:02;96562;;;12.62;63.83
2711;BME280;20721;47.402;8.550;2022-10-31T03:48:03;96558;;;12.61;63.83
2711;BME280;20721;47.402;8.550;2022-10-31T03:49:02;96555;;;12.59;63.87
2711;BME280;20721;47.402;8.550;2022-10-31T03:50:03;96556;;;12.57;63.92
2711;BME280;20721;47.402;8.550;2022-10-31T03:52:19;96557;;;12.55;64.05
2711;BME280;20721;47.402;8.550;2022-10-31T03:53:04;96563;;;12.56;64.06
2711;BME280;20721;47.402;8.550;2022-10-31T03:56:06;96557;;;12.54;64.08
2711;BME280;20721;47.402;8.550;2022-10-31T03:59:07;96561;;;12.50;64.09
2711;BME280;20721;47.402;8.550;2022-10-31T04:03:11;96559;;;12.51;64.09
2711;BME280;20721;47.402;8.550;2022-10-31T04:05:02;96562;;;12.53;64.03
2711;BME280;20721;47.402;8.550;2022-10-31T04:06:04;96560;;;12.54;64.01
2711;BME280;20721;47.402;8.550;2022-10-31T04:07:02;96562;;;12.53;63.97
2711;BME280;20721;47.402;8.550;2022-10-31T04:08:03;96559;;;12.54;63.96
2711;BME280;20721;47.402;8.550;2022-10-31T04:09:03;96559;;;12.53;63.99
2711;BME280;20721;47.402;8.550;2022-10-31T04:10:04;96556;;;12.52;63.98
2711;BME280;20721;47.402;8.550;2022-10-31T04:11:02;96558;;;12.53;63.89
2711;BME280;20721;47.402;8.550;2022-10-31T04:12:03;96557;;;12.52;63.90
2711;BME280;20721;47.402;8.550;2022-10-31T04:14:02;96561;;;12.53;63.89
2711;BME280;20721;47.402;8.550;2022-10-31T04:16:02;96558;;;12.54;63.86
2711;BME280;20721;47.402;8.550;2022-10-31T04:19:02;96557;;;12.56;63.89
2711;BME280;20721;47.402;8.550;2022-10-31T04:21:04;96554;;;12.54;63.80
2711;BME280;20721;47.402;8.550;2022-10-31T04:22:02;96552;;;12.50;63.79
2711;BME280;20721;47.402;8.550;2022-10-31T04:24:02;96554;;;12.48;63.82
2711;BME280;20721;47.402;8.550;2022-10-31T04:25:02;96556;;;12.45;63.82
2711;BME280;20721;47.402;8.550;2022-10-31T04:26:02;96556;;;12.43;63.86
2711;BME280;20721;47.402;8.550;2022-10-31T04:28:03;96559;;;12.41;63.92
2711;BME280;20721;47.402;8.550;2022-10-31T04:29:02;96555;;;12.39;64.05
2711;BME280;20721;47.402;8.550;2022-10-31T04:30:02;96556;;;12.40;64.02
2711;BME280;20721;47.402;8.550;2022-10-31T04:31:02;96552;;;12.39;64.01
2711;BME280;20721;47.402;8.550;2022-10-31T04:33:03;96549;;;12.40;63.95
2711;BME280;20721;47.402;8.550;2022-10-31T04:36:02;96553;;;12.38;63.99
2711;BME280;20721;47.402;8.550;2022-10-31T04:37:02;96552;;;12.35;64.12
2711;BME280;20721;47.402;8.550;2022-10-31T04:38:02;96550;;;12.34;64.13
2711;BME280;20721;47.402;8.550;2022-10-31T04:39:02;96552;;;12.33;64.17
2711;BME280;20721;47.402;8.550;2022-10-31T04:40:02;96551;;;12.31;64.26
2711;BME280;20721;47.402;8.550;2022-10-31T04:41:02;96547;;;12.30;64.32
2711;BME280;20721;47.402;8.550;2022-10-31T04:42:02;96545;;;12.27;64.40
2711;BME280;20721;47.402;8.550;2022-10-31T04:43:03;96543;;;12.26;64.50
2711;BME280;20721;47.402;8.550;2022-10-31T04:44:02;96539;;;12.25;64.51
2711;BME280;20721;47.402;8.550;2022-10-31T04:45:02;96541;;;12.26;64.53
2711;BME280;20721;47.402;8.550;2022-10-31T04:46:02;96541;;;12.29;64.53
2711;BME280;20721;47.402;8.550;2022-10-31T04:47:02;96542;;;12.30;64.52
2711;BME280;20721;47.402;8.550;2022-10-31T04:50:03;96542;;;12.31;64.53
2711;BME280;20721;47.402;8.550;2022-10-31T04:51:02;96538;;;12.34;64.47
2711;BME280;20721;47.402;8.550;2022-10-31T04:53:02;96537;;;12.35;64.59
2711;BME280;20721;47.402;8.550;2022-10-31T04:56:02;96533;;;12.36;64.69
2711;BME280;20721;47.402;8.550;2022-10-31T04:57:02;96536;;;12.33;64.76
2711;BME280;20721;47.402;8.550;2022-10-31T04:58:03;96534;;;12.29;64.85
2711;BME280;20721;47.402;8.550;2022-10-31T04:59:02;96533;;;12.25;65.12
2711;BME280;20721;47.402;8.550;2022-10-31T05:00:02;96537;;;12.23;65.37
2711;BME280;20721;47.402;8.550;2022-10-31T05:01:02;96531;;;12.20;65.57
2711;BME280;20721;47.402;8.550;2022-10-31T05:02:03;96536;;;12.19;65.63
2711;BME280;20721;47.402;8.550;2022-10-31T05:03:03;96532;;;12.16;65.68
2711;BME280;20721;47.402;8.550;2022-10-31T05:04:02;96530;;;12.13;65.77
2711;BME280;20721;47.402;8.550;2022-10-31T05:05:06;96532;;;12.11;65.98
2711;BME280;20721;47.402;8.550;2022-10-31T05:06:02;96530;;;12.09;66.15
2711;BME280;20721;47.402;8.550;2022-10-31T05:08:02;96531;;;12.10;66.22
2711;BME280;20721;47.402;8.550;2022-10-31T05:09:02;96528;;;12.13;66.25
2711;BME280;20721;47.402;8.550;2022-10-31T05:10:02;96529;;;12.16;66.18
2711;BME280;20721;47.402;8.550;2022-10-31T05:11:04;96529;;;12.19;66.15
2711;BME280;20721;47.402;8.550;2022-10-31T05:12:05;96527;;;12.21;66.14
2711;BME280;20721;47.402;8.550;2022-10-31T05:13:03;96531;;;12.23;66.10
2711;BME280;20721;47.402;8.550;2022-10-31T05:14:02;96529;;;12.26;66.17
2711;BME280;20721;47.402;8.550;2022-10-31T05:15:03;96527;;;12.28;66.13
2711;BME280;20721;47.402;8.550;2022-10-31T05:16:03;96520;;;12.31;66.02
2711;BME280;20721;47.402;8.550;2022-10-31T05:17:02;96521;;;12.32;66.06
2711;BME280;20721;47.402;8.550;2022-10-31T05:18:03;96521;;;12.31;66.06
2711;BME280;20721;47.402;8.550;2022-10-31T05:19:02;96520;;;12.27;66.22
2711;BME280;20721;47.402;8.550;2022-10-31T05:20:02;96521;;;12.24;66.33
2711;BME280;20721;47.402;8.550;2022-10-31T05:21:02;96519;;;12.21;66.18
2711;BME280;20721;47.402;8.550;2022-10-31T05:22:02;96519;;;12.20;66.27
2711;BME280;20721;47.402;8.550;2022-10-31T05:23:02;96517;;;12.17;66.36
2711;BME280;20721;47.402;8.550;2022-10-31T05:24:02;96520;;;12.16;66.42
2711;BME280;20721;47.402;8.550;2022-10-31T05:25:03;96522;;;12.17;66.51
2711;BME280;20721;47.402;8.550;2022-10-31T05:26:02;96521;;;12.19;66.45
2711;BME280;20721;47.402;8.550;2022-10-31T05:27:02;96518;;;12.20;66.42
2711;BME280;20721;47.402;8.550;2022-10-31T05:31:03;96510;;;12.19;66.33
2711;BME280;20721;47.402;8.550;2022-10-31T05:32:02;96509;;;12.18;66.40
2711;BME280;20721;47.402;8.550;2022-10-31T05:34:02;96509;;;12.19;66.47
2711;BME280;20721;47.402;8.550;2022-10-31T05:35:02;96512;;;12.20;66.44
2711;BME280;20721;47.402;8.550;2022-10-31T05:36:02;96514;;;12.23;66.45
2711;BME280;20721;47.402;8.550;2022-10-31T05:37:02;96516;;;12.25;66.45
2711;BME280;20721;47.402;8.550;2022-10-31T05:38:02;96515;;;12.28;66.49
2711;BME280;20721;47.402;8.550;2022-10-31T05:39:02;96512;;;12.30;66.45
2711;BME280;20721;47.402;8.550;2022-10-31T05:40:09;96511;;;12.31;66.37
2711;BME280;20721;47.402;8.550;2022-10-31T05:42:03;96508;;;12.32;66.39
2711;BME280;20721;47.402;8.550;2022-10-31T05:44:02;96511;;;12.31;66.33
2711;BME280;20721;47.402;8.550;2022-10-31T05:45:02;96512;;;12.32;66.29
2711;BME280;20721;47.402;8.550;2022-10-31T05:47:02;96510;;;12.33;66.47
2711;BME280;20721;47.402;8.550;2022-10-31T05:48:03;96511;;;12.32;66.39
2711;BME280;20721;47.402;8.550;2022-10-31T05:49:05;96510;;;12.31;66.41
2711;BME280;20721;47.402;8.550;2022-10-31T05:50:03;96509;;;12.29;66.39
2711;BME280;20721;47.402;8.550;2022-10-31T05:52:02;96503;;;12.25;66.58
2711;BME280;20721;47.402;8.550;2022-10-31T05:53:03;96506;;;12.21;66.88
2711;BME280;20721;47.402;8.550;2022-10-31T05:54:03;96502;;;12.19;66.99
2711;BME280;20721;47.402;8.550;2022-10-31T05:55:02;96506;;;12.18;67.08
2711;BME280;20721;47.402;8.550;2022-10-31T05:57:03;96506;;;12.19;67.02
2711;BME280;20721;47.402;8.550;2022-10-31T05:58:03;96505;;;12.21;67.00
2711;BME280;20721;47.402;8.550;2022-10-31T05:59:02;96506;;;12.24;66.95
2711;BME280;20721;47.402;8.550;2022-10-31T06:00:03;96507;;;12.27;66.91
2711;BME280;20721;47.402;8.550;2022-10-31T06:01:02;96505;;;12.28;66.87
2711;BME280;20721;47.402;8.550;2022-10-31T06:02:02;96507;;;12.30;66.80
2711;BME280;20721;47.402;8.550;2022-10-31T06:04:02;96509;;;12.27;66.85
2711;BME280;20721;47.402;8.550;2022-10-31T06:05:03;96507;;;12.24;66.73
2711;BME280;20721;47.402;8.550;2022-10-31T06:06:02;96514;;;12.23;67.04
2711;BME280;20721;47.402;8.550;2022-10-31T06:07:03;96512;;;12.09;67.13
2711;BME280;20721;47.402;8.550;2022-10-31T06:08:03;96508;;;12.05;67.29
2711;BME280;20721;47.402;8.550;2022-10-31T06:09:02;96511;;;12.03;67.19
2711;BME280;20721;47.402;8.550;2022-10-31T06:10:03;96510;;;12.04;67.33
2711;BME280;20721;47.402;8.550;2022-10-31T06:14:03;96510;;;12.03;67.59
2711;BME280;20721;47.402;8.550;2022-10-31T06:16:02;96510;;;12.04;67.99
2711;BME280;20721;47.402;8.550;2022-10-31T06:17:02;96514;;;12.05;68.04
2711;BME280;20721;47.402;8.550;2022-10-31T06:18:04;96506;;;12.06;68.10
2711;BME280;20721;47.402;8.550;2022-10-31T06:19:02;96508;;;12.05;68.00
2711;BME280;20721;47.402;8.550;2022-10-31T06:20:03;96506;;;12.06;68.09
2711;BME280;20721;47.402;8.550;2022-10-31T06:21:02;96507;;;12.10;68.25
2711;BME280;20721;47.402;8.550;2022-10-31T06:22:02;96506;;;12.15;68.14
2711;BME280;20721;47.402;8.550;2022-10-31T06:23:03;96509;;;12.21;68.01
2711;BME280;20721;47.402;8.550;2022-10-31T06:24:03;96507;;;12.23;67.92
2711;BME280;20721;47.402;8.550;2022-10-31T06:25:03;96506;;;12.25;67.82
2711;BME280;20721;47.402;8.550;2022-10-31T06:26:06;96507;;;12.26;67.76
2711;BME280;20721;47.402;8.550;2022-10-31T06:27:03;96506;;;12.25;67.85
2711;BME280;20721;47.402;8.550;2022-10-31T06:29:04;96505;;;12.26;68.04
2711;BME280;20721;47.402;8.550;2022-10-31T06:30:03;96503;;;12.23;67.98
2711;BME280;20721;47.402;8.550;2022-10-31T06:31:03;96503;;;12.14;68.29
2711;BME280;20721;47.402;8.550;2022-10-31T06:32:03;96503;;;12.07;68.62
2711;BME280;20721;47.402;8.550;2022-10-31T06:33:04;96506;;;12.04;68.82
2711;BME280;20721;47.402;8.550;2022-10-31T06:35:03;96505;;;12.07;68.84
2711;BME280;20721;47.402;8.550;2022-10-31T06:37:03;96508;;;12.06;68.89
2711;BME280;20721;47.402;8.550;2022-10-31T06:38:03;96507;;;12.05;69.09
2711;BME280;20721;47.402;8.550;2022-10-31T06:39:03;96504;;;12.01;68.61
2711;BME280;20721;47.402;8.550;2022-10-31T06:40:03;96501;;;11.96;68.67
2711;BME280;20721;47.402;8.550;2022-10-31T06:41:04;96500;;;11.92;69.23
2711;BME280;20721;47.402;8.550;2022-10-31T06:44:08;96498;;;11.95;69.90
2711;BME280;20721;47.402;8.550;2022-10-31T06:45:03;96504;;;11.99;69.88
2711;BME280;20721;47.402;8.550;2022-10-31T06:46:03;96506;;;12.03;69.82
2711;BME280;20721;47.402;8.550;2022-10-31T06:47:03;96508;;;12.05;69.44
2711;BME280;20721;47.402;8.550;2022-10-31T06:48:12;96509;;;12.04;69.74
2711;BME280;20721;47.402;8.550;2022-10-31T06:49:02;96508;;;12.03;69.83
2711;BME280;20721;47.402;8.550;2022-10-31T06:51:03;96508;;;12.04;69.81
2711;BME280;20721;47.402;8.550;2022-10-31T06:52:03;96507;;;12.08;69.67
2711;BME280;20721;47.402;8.550;2022-10-31T06:53:03;96509;;;12.14;69.64
2711;BME280;20721;47.402;8.550;2022-10-31T06:54:03;96507;;;12.20;69.55
2711;BME280;20721;47.402;8.550;2022-10-31T06:55:03;96512;;;12.26;69.48
2711;BME280;20721;47.402;8.550;2022-10-31T06:56:03;96516;;;12.31;69.32
2711;BME280;20721;47.402;8.550;2022-10-31T06:57:03;96516;;;12.35;69.22
2711;BME280;20721;47.402;8.550;2022-10-31T06:58:03;96514;;;12.37;68.93
2711;BME280;20721;47.402;8.550;2022-10-31T06:59:03;96514;;;12.38;68.92
2711;BME280;20721;47.402;8.550;2022-10-31T07:00:03;96513;;;12.39;68.86
2711;BME280;20721;47.402;8.550;2022-10-31T07:01:03;96512;;;12.41;68.77
2711;BME280;20721;47.402;8.550;2022-10-31T07:02:03;96517;;;12.43;68.66
2711;BME280;20721;47.402;8.550;2022-10-31T07:03:09;96516;;;12.46;68.74
2711;BME280;20721;47.402;8.550;2022-10-31T07:04:03;96520;;;12.48;68.39
2711;BME280;20721;47.402;8.550;2022-10-31T07:05:03;96520;;;12.47;68.40
2711;BME280;20721;47.402;8.550;2022-10-31T07:09:03;96527;;;12.48;68.22
2711;BME280;20721;47.402;8.550;2022-10-31T07:10:03;96524;;;12.50;68.21
2711;BME280;20721;47.402;8.550;2022-10-31T07:11:03;96526;;;12.54;68.14
2711;BME280;20721;47.402;8.550;2022-10-31T07:12:03;96529;;;12.55;68.14
2711;BME280;20721;47.402;8.550;2022-10-31T07:13:04;96531;;;12.56;68.15
2711;BME280;20721;47.402;8.550;2022-10-31T07:14:03;96531;;;12.59;68.08
2711;BME280;20721;47.402;8.550;2022-10-31T07:15:03;96533;;;12.62;68.15
2711;BME280;20721;47.402;8.550;2022-10-31T07:16:03;96531;;;12.64;68.20
2711;BME280;20721;47.402;8.550;2022-10-31T07:17:03;96531;;;12.68;68.17
2711;BME280;20721;47.402;8.550;2022-10-31T07:18:03;96532;;;12.71;68.13
2711;BME280;20721;47.402;8.550;2022-10-31T07:19:03;96528;;;12.75;68.12
2711;BME280;20721;47.402;8.550;2022-10-31T07:20:03;96531;;;12.79;67.94
2711;BME280;20721;47.402;8.550;2022-10-31T07:21:03;96531;;;12.82;67.91
2711;BME280;20721;47.402;8.550;2022-10-31T07:22:03;96531;;;12.83;67.92
2711;BME280;20721;47.402;8.550;2022-10-31T07:23:03;96535;;;12.85;68.01
2711;BME280;20721;47.402;8.550;2022-10-31T07:25:03;96540;;;12.87;67.95
2711;BME280;20721;47.402;8.550;2022-10-31T07:26:03;96537;;;12.90;68.03
2711;BME280;20721;47.402;8.550;2022-10-31T07:27:03;96540;;;12.94;68.04
2711;BME280;20721;47.402;8.550;2022-10-31T07:28:03;96540;;;12.96;68.01
2711;BME280;20721;47.402;8.550;2022-10-31T07:29:03;96539;;;13.00;67.95
2711;BME280;20721;47.402;8.550;2022-10-31T07:30:03;96538;;;13.01;67.93
2711;BME280;20721;47.402;8.550;2022-10-31T07:31:03;96537;;;13.02;67.90
2711;BME280;20721;47.402;8.550;2022-10-31T07:32:03;96537;;;13.06;67.80
2711;BME280;20721;47.402;8.550;2022-10-31T07:34:03;96536;;;13.07;67.52
2711;BME280;20721;47.402;8.550;2022-10-31T07:35:03;96536;;;13.06;67.43